PWSweather.com
Personal Weather Stations
Station Observations
WX62612
Sturbridge, MA

Sturbridge, MA

Lat: 42.131, Lon: -72.093

Elevation: 715

Station Type:

Latest ConditionsUpdated 2:20:00 AM EST Monday, Jan 20, 2020
Currently Today's Max Today's Min Today's Average
Temperature 16.5°F-8.6°C 21.4°F-5.9°C 16.5°F-8.6°C 18.7°F-7.4°C
Dew Point 7.5°F-13.6°C 12.0°F-11.1°C 7.5°F-13.6°C 9.5°F-12.5°C
Winds 2.5 mph N4.0 kmh N 4.7 mph -7.6 kmh - - 2.3 mph 3.7 kmh
Wind Gusts 4.7 mph7.6 kmh 11.0 mph17.7 kmh - -
Humidity 67% 67% 66% 67%
Pressure 29.94 in1013.9 mb 29.95 in1014.2 mb 29.89 in1012.2 mb -
Hour Temp Dew Point Humidity Winds Wind Gusts Pressure Precip Precip Rate Daily Precip Total
02:20 AM 16.5°F-8.6°C 7.5°F-13.6°C 67% 2.5 mph N4.0 kmh N 4.7 mph7.6 kmh 29.94 in1013.9 mb 0.00 in0.0 mm 0.00 in0.0 mm 0.00 in0.0 mm
02:16 AM 16.7°F-8.5°C 7.7°F-13.5°C 67% 2.5 mph N4.0 kmh N 4.5 mph7.2 kmh 29.94 in1013.9 mb 0.00 in0.0 mm 0.00 in0.0 mm 0.00 in0.0 mm
02:10 AM 16.7°F-8.5°C 7.7°F-13.5°C 67% 2.9 mph NNW4.7 kmh NNW 4.0 mph6.4 kmh 29.94 in1013.9 mb 0.00 in0.0 mm 0.00 in0.0 mm 0.00 in0.0 mm
02:06 AM 16.9°F-8.4°C 7.9°F-13.4°C 67% 0.7 mph N1.1 kmh N 2.2 mph3.5 kmh 29.95 in1014.2 mb 0.00 in0.0 mm 0.00 in0.0 mm 0.00 in0.0 mm
02:00 AM 17.2°F-8.2°C 8.2°F-13.2°C 67% 1.6 mph N2.6 kmh N 3.6 mph5.8 kmh 29.94 in1013.9 mb 0.00 in0.0 mm 0.00 in0.0 mm 0.00 in0.0 mm
01:56 AM 17.2°F-8.2°C 8.2°F-13.2°C 67% 0.9 mph N1.4 kmh N 1.8 mph2.9 kmh 29.94 in1013.9 mb 0.00 in0.0 mm 0.00 in0.0 mm 0.00 in0.0 mm
01:50 AM 17.4°F-8.1°C 8.4°F-13.1°C 67% 0.2 mph NNE0.3 kmh NNE 1.3 mph2.1 kmh 29.94 in1013.9 mb 0.00 in0.0 mm 0.00 in0.0 mm 0.00 in0.0 mm
01:46 AM 17.6°F-8.0°C 8.4°F-13.1°C 67% 3.6 mph NW5.8 kmh NW 6.7 mph10.8 kmh 29.93 in1013.5 mb 0.00 in0.0 mm 0.00 in0.0 mm 0.00 in0.0 mm
01:40 AM 17.6°F-8.0°C 8.4°F-13.1°C 67% 2.5 mph NNW4.0 kmh NNW 3.8 mph6.1 kmh 29.93 in1013.5 mb 0.00 in0.0 mm 0.00 in0.0 mm 0.00 in0.0 mm
01:36 AM 17.6°F-8.0°C 8.4°F-13.1°C 67% 1.8 mph NNE2.9 kmh NNE 4.7 mph7.6 kmh 29.93 in1013.5 mb 0.00 in0.0 mm 0.00 in0.0 mm 0.00 in0.0 mm
01:30 AM 18.0°F-7.8°C 8.8°F-12.9°C 67% 2.0 mph NNW3.2 kmh NNW 3.1 mph5.0 kmh 29.92 in1013.2 mb 0.00 in0.0 mm 0.00 in0.0 mm 0.00 in0.0 mm
01:26 AM 18.0°F-7.8°C 8.8°F-12.9°C 67% 3.4 mph NNW5.5 kmh NNW 5.6 mph9.0 kmh 29.93 in1013.5 mb 0.00 in0.0 mm 0.00 in0.0 mm 0.00 in0.0 mm
01:20 AM 18.3°F-7.6°C 9.1°F-12.7°C 67% 1.6 mph NW2.6 kmh NW 2.9 mph4.7 kmh 29.92 in1013.2 mb 0.00 in0.0 mm 0.00 in0.0 mm 0.00 in0.0 mm
01:16 AM 18.3°F-7.6°C 9.1°F-12.7°C 67% 4.3 mph NW6.9 kmh NW 8.5 mph13.7 kmh 29.92 in1013.2 mb 0.00 in0.0 mm 0.00 in0.0 mm 0.00 in0.0 mm
01:10 AM 18.5°F-7.5°C 9.3°F-12.6°C 67% 1.8 mph NW2.9 kmh NW 3.8 mph6.1 kmh 29.92 in1013.2 mb 0.00 in0.0 mm 0.00 in0.0 mm 0.00 in0.0 mm
01:06 AM 18.7°F-7.4°C 9.5°F-12.5°C 67% 0.9 mph S1.4 kmh S 4.7 mph7.6 kmh 29.92 in1013.2 mb 0.00 in0.0 mm 0.00 in0.0 mm 0.00 in0.0 mm
01:00 AM 18.7°F-7.4°C 9.5°F-12.5°C 67% 1.1 mph NW1.8 kmh NW 2.9 mph4.7 kmh 29.91 in1012.9 mb 0.00 in0.0 mm 0.00 in0.0 mm 0.00 in0.0 mm
12:56 AM 19.0°F-7.2°C 9.9°F-12.3°C 67% 1.1 mph NNW1.8 kmh NNW 4.0 mph6.4 kmh 29.91 in1012.9 mb 0.00 in0.0 mm 0.00 in0.0 mm 0.00 in0.0 mm
12:50 AM 19.2°F-7.1°C 10.0°F-12.2°C 67% 4.7 mph NNW7.6 kmh NNW 10.3 mph16.6 kmh 29.91 in1012.9 mb 0.00 in0.0 mm 0.00 in0.0 mm 0.00 in0.0 mm
12:46 AM 19.4°F-7.0°C 10.2°F-12.1°C 67% 1.8 mph NNW2.9 kmh NNW 3.4 mph5.5 kmh 29.91 in1012.9 mb 0.00 in0.0 mm 0.00 in0.0 mm 0.00 in0.0 mm
12:40 AM 19.8°F-6.8°C 10.6°F-11.9°C 67% 1.6 mph NNW2.6 kmh NNW 4.5 mph7.2 kmh 29.91 in1012.9 mb 0.00 in0.0 mm 0.00 in0.0 mm 0.00 in0.0 mm
12:36 AM 19.8°F-6.8°C 10.2°F-12.1°C 66% 3.8 mph N6.1 kmh N 8.7 mph14.0 kmh 29.91 in1012.9 mb 0.00 in0.0 mm 0.00 in0.0 mm 0.00 in0.0 mm
12:30 AM 20.3°F-6.5°C 10.8°F-11.8°C 66% 3.8 mph N6.1 kmh N 10.1 mph16.3 kmh 29.91 in1012.9 mb 0.00 in0.0 mm 0.00 in0.0 mm 0.00 in0.0 mm
12:26 AM 20.3°F-6.5°C 11.1°F-11.6°C 67% 2.7 mph N4.3 kmh N 6.5 mph10.5 kmh 29.90 in1012.5 mb 0.00 in0.0 mm 0.00 in0.0 mm 0.00 in0.0 mm
12:20 AM 20.7°F-6.3°C 11.1°F-11.6°C 66% 3.8 mph NE6.1 kmh NE 11.0 mph17.7 kmh 29.90 in1012.5 mb 0.00 in0.0 mm 0.00 in0.0 mm 0.00 in0.0 mm
12:16 AM 20.8°F-6.2°C 11.3°F-11.5°C 66% 3.6 mph N5.8 kmh N 7.2 mph11.6 kmh 29.90 in1012.5 mb 0.00 in0.0 mm 0.00 in0.0 mm 0.00 in0.0 mm
12:10 AM 21.2°F-6.0°C 11.7°F-11.3°C 66% 1.8 mph N2.9 kmh N 4.5 mph7.2 kmh 29.90 in1012.5 mb 0.00 in0.0 mm 0.00 in0.0 mm 0.00 in0.0 mm
12:06 AM 21.2°F-6.0°C 12.0°F-11.1°C 67% 2.0 mph NNW3.2 kmh NNW 3.8 mph6.1 kmh 29.89 in1012.2 mb 0.00 in0.0 mm 0.00 in0.0 mm 0.00 in0.0 mm
12:00 AM 21.4°F-5.9°C 11.8°F-11.2°C 66% 1.8 mph N2.9 kmh N 2.7 mph4.3 kmh 29.89 in1012.2 mb 0.00 in0.0 mm 0.00 in0.0 mm 0.00 in0.0 mm